createdAt,value
2022-08-26T00:00:20.539Z,19.70
2022-08-26T00:02:49.074Z,19.60
2022-08-26T00:05:17.959Z,19.60
2022-08-26T00:07:48.042Z,19.60
2022-08-26T00:10:17.319Z,19.60
2022-08-26T00:12:46.159Z,19.50
2022-08-26T00:15:16.686Z,19.50
2022-08-26T00:17:45.103Z,19.50
2022-08-26T00:20:16.002Z,19.50
2022-08-26T00:22:44.808Z,19.30
2022-08-26T00:25:16.798Z,19.10
2022-08-26T00:27:46.477Z,19.00
2022-08-26T00:30:22.739Z,19.10
2022-08-26T00:32:52.806Z,19.10
2022-08-26T00:35:22.212Z,19.20
2022-08-26T00:37:52.266Z,19.20
2022-08-26T00:40:30.131Z,19.20
2022-08-26T00:42:59.072Z,19.30
2022-08-26T00:45:28.068Z,19.30
2022-08-26T00:47:59.790Z,19.30
2022-08-26T00:50:32.359Z,19.30
2022-08-26T00:53:02.111Z,19.30
2022-08-26T00:55:38.208Z,19.30
2022-08-26T00:58:07.490Z,19.30
2022-08-26T01:00:35.995Z,19.30
2022-08-26T01:03:05.522Z,19.30
2022-08-26T01:05:36.435Z,19.30
2022-08-26T01:08:05.311Z,19.30
2022-08-26T01:10:35.225Z,19.30
2022-08-26T01:13:06.880Z,19.20
2022-08-26T01:15:37.411Z,19.00
2022-08-26T01:18:07.176Z,18.90
2022-08-26T01:20:42.549Z,18.90
2022-08-26T01:23:12.817Z,18.90
2022-08-26T01:25:45.235Z,19.00
2022-08-26T01:28:17.359Z,19.00
2022-08-26T01:30:47.255Z,18.90
2022-08-26T01:33:18.914Z,18.90
2022-08-26T01:35:47.703Z,18.90
2022-08-26T01:38:19.283Z,18.90
2022-08-26T01:40:48.051Z,18.90
2022-08-26T01:43:21.481Z,18.90
2022-08-26T01:45:51.754Z,19.00
2022-08-26T01:48:24.894Z,19.00
2022-08-26T01:50:53.619Z,18.90
2022-08-26T01:53:26.011Z,18.90
2022-08-26T01:55:58.273Z,18.90
2022-08-26T01:58:31.453Z,18.90
2022-08-26T02:01:00.568Z,18.90
2022-08-26T02:03:31.313Z,18.90
2022-08-26T02:06:03.943Z,19.00
2022-08-26T02:08:39.861Z,19.00
2022-08-26T02:11:08.790Z,19.00
2022-08-26T02:13:42.266Z,19.00
2022-08-26T02:16:12.068Z,19.00
2022-08-26T02:18:43.291Z,19.00
2022-08-26T02:21:12.799Z,18.90
2022-08-26T02:23:42.969Z,18.90
2022-08-26T02:26:17.878Z,18.90
2022-08-26T02:28:51.694Z,18.80
2022-08-26T02:31:20.488Z,18.70
2022-08-26T02:33:49.408Z,18.70
2022-08-26T02:36:21.193Z,18.70
2022-08-26T02:38:52.200Z,18.70
2022-08-26T02:41:21.016Z,18.70
2022-08-26T02:43:51.647Z,18.70
2022-08-26T02:46:21.483Z,18.60
2022-08-26T02:48:56.586Z,18.40
2022-08-26T02:51:25.220Z,18.30
2022-08-26T02:53:55.262Z,18.40
2022-08-26T02:56:24.194Z,18.40
2022-08-26T02:58:52.827Z,18.40
2022-08-26T03:01:25.370Z,18.50
2022-08-26T03:03:53.968Z,18.60
2022-08-26T03:06:22.847Z,18.50
2022-08-26T03:08:51.568Z,18.50
2022-08-26T03:11:21.807Z,18.60
2022-08-26T03:13:50.457Z,18.70
2022-08-26T03:16:20.712Z,18.70
2022-08-26T03:18:52.183Z,18.60
2022-08-26T03:21:22.839Z,18.50
2022-08-26T03:23:51.392Z,18.50
2022-08-26T03:26:21.515Z,18.50
2022-08-26T03:29:07.797Z,18.50
2022-08-26T03:31:38.378Z,18.40
2022-08-26T03:34:07.473Z,18.40
2022-08-26T03:36:36.116Z,18.40
2022-08-26T03:39:04.710Z,18.40
2022-08-26T03:41:35.007Z,18.50
2022-08-26T03:44:03.739Z,18.50
2022-08-26T03:46:33.501Z,18.40
2022-08-26T03:49:02.823Z,18.40
2022-08-26T03:51:31.836Z,18.40
2022-08-26T03:54:03.080Z,18.40
2022-08-26T03:56:33.365Z,18.40
2022-08-26T03:59:03.324Z,18.40
2022-08-26T04:01:32.528Z,18.50
2022-08-26T04:04:01.573Z,18.50
2022-08-26T04:06:33.679Z,18.40
2022-08-26T04:09:05.294Z,18.40
2022-08-26T04:11:37.792Z,18.20
2022-08-26T04:14:10.986Z,18.20
2022-08-26T04:16:39.522Z,18.20
2022-08-26T04:19:08.079Z,18.30
2022-08-26T04:21:38.351Z,18.30
2022-08-26T04:24:11.412Z,18.40
2022-08-26T04:26:42.695Z,18.50
2022-08-26T04:29:15.791Z,18.70
2022-08-26T04:31:44.540Z,18.90
2022-08-26T04:34:14.272Z,19.10
2022-08-26T04:36:44.056Z,19.30
2022-08-26T04:39:16.608Z,19.40
2022-08-26T04:41:47.693Z,19.60
2022-08-26T04:44:18.956Z,19.60
2022-08-26T04:46:47.451Z,19.70
2022-08-26T04:49:17.566Z,19.80
2022-08-26T04:51:47.286Z,19.90
2022-08-26T04:54:16.711Z,20.00
2022-08-26T04:56:49.460Z,20.10
2022-08-26T04:59:19.412Z,20.10
2022-08-26T05:01:49.857Z,20.20
2022-08-26T05:04:19.933Z,20.30
2022-08-26T05:06:48.711Z,20.30
2022-08-26T05:09:18.480Z,20.40
2022-08-26T05:11:48.431Z,20.40
2022-08-26T05:14:23.248Z,20.60
2022-08-26T05:16:56.479Z,20.50
2022-08-26T05:19:25.147Z,20.40
2022-08-26T05:21:56.619Z,20.30
2022-08-26T05:24:25.427Z,20.30
2022-08-26T05:26:54.100Z,20.40
2022-08-26T05:29:26.392Z,20.50
2022-08-26T05:31:55.381Z,20.60
2022-08-26T05:34:30.036Z,20.80
2022-08-26T05:36:58.921Z,20.90
2022-08-26T05:39:27.417Z,21.20
2022-08-26T05:41:55.865Z,21.30
2022-08-26T05:44:26.186Z,21.40
2022-08-26T05:46:54.802Z,21.50
2022-08-26T05:49:26.314Z,21.70
2022-08-26T05:51:55.171Z,21.80
2022-08-26T05:54:24.030Z,22.10
2022-08-26T05:56:52.926Z,22.30
2022-08-26T05:59:24.454Z,22.50
2022-08-26T06:01:55.657Z,22.80
2022-08-26T06:04:27.354Z,22.90
2022-08-26T06:06:57.914Z,23.20
2022-08-26T06:09:27.348Z,23.30
2022-08-26T06:11:56.011Z,23.50
2022-08-26T06:14:25.967Z,23.60
2022-08-26T06:16:56.307Z,23.70
2022-08-26T06:19:25.681Z,23.90
2022-08-26T06:22:22.548Z,24.00
2022-08-26T06:25:15.072Z,24.20
2022-08-26T06:27:43.554Z,24.20
2022-08-26T06:30:13.267Z,24.50
2022-08-26T06:32:43.529Z,24.70
2022-08-26T06:35:12.421Z,24.90
2022-08-26T06:37:42.791Z,25.00
2022-08-26T06:40:12.450Z,25.10
2022-08-26T06:42:41.750Z,25.10
2022-08-26T06:45:10.979Z,25.10
2022-08-26T06:47:39.647Z,25.20
2022-08-26T06:50:10.700Z,25.30
2022-08-26T06:52:39.211Z,25.50
2022-08-26T06:55:08.636Z,25.60
2022-08-26T06:57:39.773Z,25.80
2022-08-26T07:00:11.116Z,25.90
2022-08-26T07:02:41.289Z,26.10
2022-08-26T07:05:17.531Z,26.20
2022-08-26T07:07:48.067Z,26.40
2022-08-26T07:10:16.749Z,26.70
2022-08-26T07:12:47.114Z,26.80
2022-08-26T07:15:15.983Z,26.90
2022-08-26T07:17:44.671Z,27.10
2022-08-26T07:20:14.071Z,27.20
2022-08-26T07:22:43.909Z,27.30
2022-08-26T07:25:12.716Z,27.30
2022-08-26T07:27:41.167Z,27.40
2022-08-26T07:30:10.729Z,27.50
2022-08-26T07:32:43.658Z,27.70
2022-08-26T07:35:12.127Z,27.80
2022-08-26T07:37:40.641Z,27.80
2022-08-26T07:40:11.879Z,27.90
2022-08-26T07:42:40.556Z,28.00
2022-08-26T07:45:09.444Z,28.10
2022-08-26T07:47:38.130Z,28.00
2022-08-26T07:50:07.537Z,27.70
2022-08-26T07:52:37.578Z,27.50
2022-08-26T07:55:08.797Z,27.50
2022-08-26T07:57:38.597Z,27.40
2022-08-26T08:00:12.082Z,27.40
2022-08-26T08:02:41.539Z,27.30
2022-08-26T08:05:10.444Z,27.40
2022-08-26T08:07:45.275Z,27.30
2022-08-26T08:10:15.901Z,27.30
2022-08-26T08:12:46.338Z,27.20
2022-08-26T08:15:15.981Z,27.20
2022-08-26T08:17:45.170Z,27.10
2022-08-26T08:20:14.912Z,27.10
2022-08-26T08:22:43.727Z,27.10
2022-08-26T08:25:12.821Z,27.00
2022-08-26T08:27:42.742Z,26.90
2022-08-26T08:30:14.035Z,26.90
2022-08-26T08:32:44.379Z,26.80
2022-08-26T08:35:15.135Z,26.80
2022-08-26T08:37:44.900Z,26.80
2022-08-26T08:40:18.222Z,26.80
2022-08-26T08:42:49.108Z,26.80
2022-08-26T08:45:27.206Z,26.80
2022-08-26T08:47:57.794Z,26.80
2022-08-26T08:50:29.398Z,26.70
2022-08-26T08:53:11.649Z,26.60
2022-08-26T08:55:49.434Z,26.60
2022-08-26T08:58:21.739Z,26.70
2022-08-26T09:00:56.956Z,26.70
2022-08-26T09:03:36.073Z,26.70
2022-08-26T09:06:05.013Z,26.70
2022-08-26T09:08:35.754Z,26.80
2022-08-26T09:11:05.117Z,26.80
2022-08-26T09:13:35.666Z,26.80
2022-08-26T09:16:10.123Z,26.70
2022-08-26T09:19:07.642Z,26.70
2022-08-26T09:21:36.308Z,26.70
2022-08-26T09:24:06.038Z,26.80
2022-08-26T09:26:47.338Z,26.90
2022-08-26T09:29:23.013Z,26.90
2022-08-26T09:31:57.993Z,27.00
2022-08-26T09:34:28.928Z,27.10
2022-08-26T09:36:59.701Z,27.10
2022-08-26T09:39:31.710Z,27.20
2022-08-26T09:42:06.834Z,27.30
2022-08-26T09:44:36.484Z,27.30
2022-08-26T09:47:08.844Z,27.40
2022-08-26T09:49:41.203Z,27.40
2022-08-26T09:52:17.198Z,27.30
2022-08-26T09:54:46.728Z,27.20
2022-08-26T09:57:26.235Z,27.00
2022-08-26T09:59:55.244Z,26.90
2022-08-26T10:02:38.268Z,26.90
2022-08-26T10:05:10.974Z,26.80
2022-08-26T10:07:43.915Z,26.70
2022-08-26T10:10:19.204Z,26.70
2022-08-26T10:12:53.729Z,26.70
2022-08-26T10:15:25.343Z,26.80
2022-08-26T10:18:02.395Z,26.90
2022-08-26T10:20:37.583Z,27.00
2022-08-26T10:23:09.099Z,27.00
2022-08-26T10:25:47.303Z,27.20
2022-08-26T10:28:23.220Z,27.20
2022-08-26T10:31:02.662Z,27.30
2022-08-26T10:33:32.730Z,27.40
2022-08-26T10:36:07.627Z,27.40
2022-08-26T10:38:44.443Z,27.40
2022-08-26T10:41:16.871Z,27.40
2022-08-26T10:43:50.137Z,27.40
2022-08-26T10:46:27.086Z,27.30
2022-08-26T10:49:00.247Z,27.20
2022-08-26T10:51:36.578Z,27.10
2022-08-26T10:54:10.214Z,27.20
2022-08-26T10:56:46.062Z,27.20
2022-08-26T10:59:25.376Z,27.30
2022-08-26T11:02:03.867Z,27.50
2022-08-26T11:04:45.648Z,27.60
2022-08-26T11:07:40.945Z,27.70
2022-08-26T11:11:00.319Z,27.80
2022-08-26T11:14:00.327Z,27.90
2022-08-26T11:16:42.942Z,27.90
2022-08-26T11:19:14.358Z,27.90
2022-08-26T11:22:06.180Z,27.90
2022-08-26T11:25:01.856Z,27.90
2022-08-26T11:28:06.357Z,28.00
2022-08-26T11:30:47.694Z,28.00
2022-08-26T11:33:50.928Z,28.10
2022-08-26T11:36:42.795Z,28.00
2022-08-26T11:39:20.626Z,27.90
2022-08-26T11:41:52.683Z,28.00
2022-08-26T11:44:23.880Z,28.00
2022-08-26T11:46:58.012Z,28.10
2022-08-26T11:49:28.284Z,28.10
2022-08-26T11:52:13.270Z,28.10
2022-08-26T11:55:01.307Z,28.10
2022-08-26T11:57:31.557Z,28.20
2022-08-26T12:00:01.350Z,28.20
2022-08-26T12:02:30.161Z,28.30
2022-08-26T12:04:58.886Z,28.40
2022-08-26T12:07:29.202Z,28.50
2022-08-26T12:10:00.621Z,28.40
2022-08-26T12:12:34.971Z,28.40
2022-08-26T12:15:14.751Z,28.30
2022-08-26T12:17:44.118Z,28.40
2022-08-26T12:20:21.699Z,28.40
2022-08-26T12:22:50.374Z,28.40
2022-08-26T12:25:24.855Z,28.40
2022-08-26T12:28:12.288Z,28.30
2022-08-26T12:30:41.207Z,28.20
2022-08-26T12:33:22.063Z,28.00
2022-08-26T12:35:56.207Z,28.00
2022-08-26T12:38:26.817Z,28.00
2022-08-26T12:40:58.016Z,28.00
2022-08-26T12:43:41.609Z,28.10
2022-08-26T12:46:12.759Z,28.30
2022-08-26T12:48:44.372Z,28.30
2022-08-26T12:51:23.704Z,28.40
2022-08-26T12:53:53.146Z,28.30
2022-08-26T12:56:35.282Z,28.30
2022-08-26T12:59:07.122Z,28.20
2022-08-26T13:01:42.867Z,28.10
2022-08-26T13:04:36.463Z,28.20
2022-08-26T13:07:22.384Z,28.30
2022-08-26T13:09:51.817Z,28.30
2022-08-26T13:12:31.101Z,28.40
2022-08-26T13:15:02.911Z,28.50
2022-08-26T13:17:31.942Z,28.50
2022-08-26T13:20:04.143Z,28.60
2022-08-26T13:22:33.245Z,28.70
2022-08-26T13:25:02.837Z,28.70
2022-08-26T13:27:34.074Z,28.60
2022-08-26T13:30:03.866Z,28.60
2022-08-26T13:32:32.768Z,28.60
2022-08-26T13:35:05.601Z,28.70
2022-08-26T13:37:35.619Z,28.70
2022-08-26T13:40:06.500Z,28.70
2022-08-26T13:42:37.052Z,28.70
2022-08-26T13:45:18.219Z,28.70
2022-08-26T13:47:48.135Z,28.80
2022-08-26T13:50:16.745Z,28.80
2022-08-26T13:52:45.315Z,28.80
2022-08-26T13:55:13.842Z,28.80
2022-08-26T13:57:43.798Z,28.90
2022-08-26T14:00:13.539Z,28.90
2022-08-26T14:02:42.010Z,28.80
2022-08-26T14:05:10.701Z,28.80
2022-08-26T14:07:39.168Z,28.70
2022-08-26T14:10:08.438Z,28.60
2022-08-26T14:12:36.991Z,28.50
2022-08-26T14:15:07.961Z,28.40
2022-08-26T14:17:36.499Z,28.30
2022-08-26T14:20:07.442Z,28.30
2022-08-26T14:22:40.515Z,28.30
2022-08-26T14:25:13.053Z,28.30
2022-08-26T14:27:42.496Z,28.30
2022-08-26T14:30:13.358Z,28.20
2022-08-26T14:32:44.475Z,28.20
2022-08-26T14:35:15.118Z,28.10
2022-08-26T14:37:43.954Z,28.00
2022-08-26T14:40:18.520Z,27.90
2022-08-26T14:42:52.659Z,27.90
2022-08-26T14:45:25.154Z,27.90
2022-08-26T14:47:56.467Z,28.00
2022-08-26T14:50:27.809Z,28.00
2022-08-26T14:53:13.519Z,28.00
2022-08-26T14:55:43.510Z,28.00
2022-08-26T14:58:14.251Z,28.10
2022-08-26T15:00:44.933Z,28.10
2022-08-26T15:05:48.327Z,28.10
2022-08-26T15:08:17.105Z,28.10
2022-08-26T15:10:45.594Z,28.10
2022-08-26T15:13:14.197Z,28.10
2022-08-26T15:15:44.554Z,28.10
2022-08-26T15:18:13.255Z,28.10
2022-08-26T15:20:41.822Z,28.10
2022-08-26T15:23:11.149Z,28.10
2022-08-26T15:25:39.845Z,28.10
2022-08-26T15:28:08.395Z,28.10
2022-08-26T15:30:37.001Z,28.10
2022-08-26T15:33:07.004Z,28.10
2022-08-26T15:35:44.101Z,28.20
2022-08-26T15:38:13.493Z,28.10
2022-08-26T15:40:43.167Z,28.10
2022-08-26T15:43:27.763Z,28.00
2022-08-26T15:45:57.795Z,27.90
2022-08-26T15:48:27.730Z,27.90
2022-08-26T15:50:57.887Z,27.80
2022-08-26T15:53:26.725Z,27.70
2022-08-26T15:55:56.511Z,27.70
2022-08-26T15:58:27.117Z,27.60
2022-08-26T16:00:56.294Z,27.60
2022-08-26T16:03:25.133Z,27.60
2022-08-26T16:05:55.225Z,27.50
2022-08-26T16:08:23.999Z,27.40
2022-08-26T16:10:52.812Z,27.40
2022-08-26T16:13:23.586Z,27.30
2022-08-26T16:15:53.695Z,27.20
2022-08-26T16:18:23.603Z,27.10
2022-08-26T16:21:12.699Z,27.10
2022-08-26T16:23:45.162Z,27.00
2022-08-26T16:26:16.310Z,26.90
2022-08-26T16:28:44.846Z,26.80
2022-08-26T16:31:13.799Z,26.70
2022-08-26T16:33:42.553Z,26.70
2022-08-26T16:36:13.121Z,26.60
2022-08-26T16:38:42.438Z,26.50
2022-08-26T16:41:10.939Z,26.40
2022-08-26T16:43:39.596Z,26.30
2022-08-26T16:46:08.644Z,26.20
2022-08-26T16:48:37.246Z,26.10
2022-08-26T16:51:06.148Z,26.00
2022-08-26T16:53:35.999Z,25.80
2022-08-26T16:56:04.981Z,25.70
2022-08-26T16:58:33.490Z,25.60
2022-08-26T17:01:01.951Z,25.60
2022-08-26T17:03:30.443Z,25.50
2022-08-26T17:05:58.950Z,25.40
2022-08-26T17:08:28.834Z,25.30
2022-08-26T17:11:00.451Z,25.20
2022-08-26T17:13:35.197Z,25.10
2022-08-26T17:16:05.859Z,25.00
2022-08-26T17:18:35.013Z,24.90
2022-08-26T17:21:05.226Z,24.90
2022-08-26T17:23:34.047Z,24.80
2022-08-26T17:26:04.487Z,24.80
2022-08-26T17:28:33.157Z,24.70
2022-08-26T17:31:02.380Z,24.60
2022-08-26T17:33:31.041Z,24.50
2022-08-26T17:36:00.270Z,24.50
2022-08-26T17:38:30.126Z,24.40
2022-08-26T17:40:59.437Z,24.30
2022-08-26T17:43:29.345Z,24.20
2022-08-26T17:46:07.239Z,24.20
2022-08-26T17:48:36.418Z,24.00
2022-08-26T17:51:09.035Z,24.00
2022-08-26T17:53:38.270Z,24.00
2022-08-26T17:56:08.889Z,24.00
2022-08-26T17:58:39.505Z,23.90
2022-08-26T18:01:08.280Z,23.90
2022-08-26T18:03:36.879Z,23.80
2022-08-26T18:06:10.421Z,23.80
2022-08-26T18:08:40.187Z,23.70
2022-08-26T18:11:10.270Z,23.60
2022-08-26T18:13:47.431Z,23.50
2022-08-26T18:16:17.695Z,23.40
2022-08-26T18:18:46.491Z,23.40
2022-08-26T18:21:18.151Z,23.30
2022-08-26T18:23:47.601Z,23.30
2022-08-26T18:26:20.452Z,23.20
2022-08-26T18:28:50.460Z,23.10
2022-08-26T18:31:19.436Z,23.10
2022-08-26T18:33:48.445Z,23.10
2022-08-26T18:36:19.114Z,23.00
2022-08-26T18:38:48.333Z,23.00
2022-08-26T18:41:20.731Z,23.10
2022-08-26T18:43:52.720Z,23.10
2022-08-26T18:46:22.803Z,23.10
2022-08-26T18:48:51.520Z,23.00
2022-08-26T18:51:22.738Z,22.90
2022-08-26T18:53:51.708Z,22.90
2022-08-26T18:56:20.512Z,22.80
2022-08-26T18:58:50.681Z,22.80
2022-08-26T19:01:23.235Z,22.80
2022-08-26T19:03:54.426Z,22.80
2022-08-26T19:06:24.312Z,22.70
2022-08-26T19:08:53.720Z,22.70
2022-08-26T19:11:32.380Z,22.60
2022-08-26T19:14:08.470Z,22.60
2022-08-26T19:16:37.621Z,22.60
2022-08-26T19:19:06.841Z,22.50
2022-08-26T19:21:36.827Z,22.50
2022-08-26T19:24:08.588Z,22.50
2022-08-26T19:26:38.971Z,22.40
2022-08-26T19:29:09.163Z,22.40
2022-08-26T19:31:37.910Z,22.40
2022-08-26T19:34:06.648Z,22.30
2022-08-26T19:36:35.523Z,22.30
2022-08-26T19:39:05.742Z,22.30
2022-08-26T19:41:38.796Z,22.20
2022-08-26T19:44:10.855Z,22.20
2022-08-26T19:46:39.765Z,22.20
2022-08-26T19:49:08.384Z,22.20
2022-08-26T19:51:37.745Z,22.20
2022-08-26T19:54:06.718Z,22.10
2022-08-26T19:56:35.255Z,22.10
2022-08-26T19:59:03.898Z,22.10
2022-08-26T20:01:33.798Z,22.10
2022-08-26T20:04:02.826Z,22.00
2022-08-26T20:06:31.537Z,22.00
2022-08-26T20:09:00.055Z,22.00
2022-08-26T20:11:29.359Z,21.90
2022-08-26T20:13:57.794Z,21.90
2022-08-26T20:16:26.310Z,21.80
2022-08-26T20:19:13.548Z,21.80
2022-08-26T20:21:42.689Z,21.80
2022-08-26T20:24:13.207Z,21.70
2022-08-26T20:26:43.501Z,21.70
2022-08-26T20:29:13.777Z,21.60
2022-08-26T20:31:44.085Z,21.60
2022-08-26T20:34:14.802Z,21.50
2022-08-26T20:36:44.575Z,21.50
2022-08-26T20:39:13.506Z,21.50
2022-08-26T20:41:42.418Z,21.40
2022-08-26T20:44:10.989Z,21.40
2022-08-26T20:46:39.586Z,21.40
2022-08-26T20:49:08.264Z,21.40
2022-08-26T20:51:38.450Z,21.30
2022-08-26T20:54:07.709Z,21.40
2022-08-26T20:56:36.259Z,21.40
2022-08-26T20:59:06.827Z,21.40
2022-08-26T21:01:37.206Z,21.40
2022-08-26T21:04:13.793Z,21.30
2022-08-26T21:06:50.315Z,21.20
2022-08-26T21:09:22.326Z,21.10
2022-08-26T21:11:51.218Z,21.10
2022-08-26T21:14:20.511Z,21.20
2022-08-26T21:16:49.185Z,21.20
2022-08-26T21:19:19.611Z,21.10
2022-08-26T21:21:50.123Z,21.20
2022-08-26T21:24:19.204Z,21.20
2022-08-26T21:26:48.330Z,21.20
2022-08-26T21:29:16.865Z,21.20
2022-08-26T21:31:46.745Z,21.20
2022-08-26T21:34:15.935Z,21.20
2022-08-26T21:36:44.611Z,21.30
2022-08-26T21:39:14.932Z,21.30
2022-08-26T21:41:44.757Z,21.30
2022-08-26T21:44:14.156Z,21.30
2022-08-26T21:46:43.331Z,21.30
2022-08-26T21:49:14.016Z,21.30
2022-08-26T21:51:44.503Z,21.30
2022-08-26T21:54:14.868Z,21.30
2022-08-26T21:56:46.682Z,21.30
2022-08-26T21:59:16.540Z,21.10
2022-08-26T22:01:45.165Z,21.00
2022-08-26T22:04:13.800Z,21.00
2022-08-26T22:06:44.125Z,21.00
2022-08-26T22:09:15.179Z,21.00
2022-08-26T22:11:44.419Z,21.00
2022-08-26T22:14:13.254Z,21.00
2022-08-26T22:16:41.741Z,21.00
2022-08-26T22:19:20.057Z,20.90
2022-08-26T22:21:50.155Z,20.70
2022-08-26T22:24:21.279Z,20.50
2022-08-26T22:26:50.537Z,20.40
2022-08-26T22:29:19.984Z,20.40
2022-08-26T22:31:48.565Z,20.40
2022-08-26T22:34:19.542Z,20.50
2022-08-26T22:36:49.849Z,20.50
2022-08-26T22:39:22.281Z,20.50
2022-08-26T22:41:51.370Z,20.50
2022-08-26T22:44:21.437Z,20.60
2022-08-26T22:46:51.500Z,20.60
2022-08-26T22:49:23.644Z,20.40
2022-08-26T22:51:52.118Z,20.40
2022-08-26T22:54:22.041Z,20.40
2022-08-26T22:56:50.504Z,20.40
2022-08-26T22:59:19.130Z,20.40
2022-08-26T23:01:47.857Z,20.50
2022-08-26T23:04:16.438Z,20.50
2022-08-26T23:06:47.455Z,20.60
2022-08-26T23:09:18.142Z,20.60
2022-08-26T23:11:49.668Z,20.60
2022-08-26T23:14:19.050Z,20.60
2022-08-26T23:16:50.504Z,20.50
2022-08-26T23:19:21.022Z,20.50
2022-08-26T23:21:50.378Z,20.40
2022-08-26T23:24:19.262Z,20.40
2022-08-26T23:26:49.719Z,20.30
2022-08-26T23:29:18.469Z,20.10
2022-08-26T23:31:47.082Z,20.00
2022-08-26T23:34:33.262Z,20.10
2022-08-26T23:37:01.855Z,20.10
2022-08-26T23:39:32.244Z,20.20
2022-08-26T23:42:02.911Z,20.20
2022-08-26T23:44:32.570Z,20.30
2022-08-26T23:47:01.600Z,20.30
2022-08-26T23:49:30.858Z,20.20
2022-08-26T23:52:17.055Z,20.20
2022-08-26T23:54:47.778Z,20.20
2022-08-26T23:57:19.463Z,20.30
2022-08-26T23:59:48.508Z,20.30
